createdAt,value
2019-05-05T00:00:16.367Z,97.1
2019-05-05T00:01:16.411Z,97.2
2019-05-05T00:02:16.681Z,97.2
2019-05-05T00:03:16.944Z,97.2
2019-05-05T00:04:17.211Z,97.2
2019-05-05T00:05:16.487Z,97.2
2019-05-05T00:06:16.772Z,97.2
2019-05-05T00:07:17.051Z,97.2
2019-05-05T00:08:16.336Z,97.2
2019-05-05T00:09:16.629Z,97.2
2019-05-05T00:10:16.902Z,97.2
2019-05-05T00:11:16.975Z,97.2
2019-05-05T00:12:17.243Z,97.2
2019-05-05T00:13:16.511Z,96.8
2019-05-05T00:14:16.774Z,96.8
2019-05-05T00:15:17.070Z,96.8
2019-05-05T00:16:16.343Z,96.8
2019-05-05T00:17:16.617Z,96.8
2019-05-05T00:18:16.881Z,96.9
2019-05-05T00:19:33.011Z,96.9
2019-05-05T00:20:16.530Z,96.9
2019-05-05T00:21:16.579Z,96.9
2019-05-05T00:22:16.840Z,97.0
2019-05-05T00:23:17.106Z,97.0
2019-05-05T00:24:16.368Z,97.0
2019-05-05T00:25:16.653Z,97.0
2019-05-05T00:26:16.913Z,97.1
2019-05-05T00:27:17.174Z,97.2
2019-05-05T00:28:16.443Z,97.2
2019-05-05T00:29:16.716Z,97.2
2019-05-05T00:30:16.990Z,97.2
2019-05-05T00:31:17.042Z,97.2
2019-05-05T00:32:16.318Z,97.3
2019-05-05T00:33:16.570Z,97.2
2019-05-05T00:34:16.828Z,97.2
2019-05-05T00:35:17.111Z,97.2
2019-05-05T00:36:16.383Z,97.2
2019-05-05T00:37:16.653Z,97.2
2019-05-05T00:38:16.925Z,97.3
2019-05-05T00:39:17.197Z,97.2
2019-05-05T00:40:16.506Z,97.2
2019-05-05T00:41:16.532Z,97.2
2019-05-05T00:42:16.799Z,97.2
2019-05-05T00:43:17.068Z,97.2
2019-05-05T00:44:16.344Z,97.2
2019-05-05T00:45:16.622Z,97.2
2019-05-05T00:46:16.880Z,97.1
2019-05-05T00:47:17.157Z,97.0
2019-05-05T00:48:16.415Z,97.0
2019-05-05T00:49:16.672Z,97.0
2019-05-05T00:50:16.946Z,97.0
2019-05-05T00:51:16.977Z,96.9
2019-05-05T00:52:17.265Z,96.7
2019-05-05T00:53:16.537Z,96.7
2019-05-05T00:54:16.797Z,96.6
2019-05-05T00:55:17.064Z,96.6
2019-05-05T00:56:16.326Z,96.5
2019-05-05T00:57:16.585Z,96.6
2019-05-05T00:58:16.863Z,96.5
2019-05-05T00:59:17.141Z,96.5
2019-05-05T01:00:16.410Z,96.7
2019-05-05T01:01:16.453Z,96.8
2019-05-05T01:02:16.723Z,96.8
2019-05-05T01:03:16.997Z,96.5
2019-05-05T01:04:16.255Z,96.5
2019-05-05T01:05:16.519Z,96.6
2019-05-05T01:06:16.785Z,96.7
2019-05-05T01:07:17.055Z,96.8
2019-05-05T01:08:16.324Z,96.7
2019-05-05T01:09:16.591Z,96.7
2019-05-05T01:10:16.866Z,96.7
2019-05-05T01:11:16.905Z,96.8
2019-05-05T01:12:17.178Z,96.8
2019-05-05T01:13:16.448Z,96.7
2019-05-05T01:14:16.711Z,96.5
2019-05-05T01:15:16.991Z,96.3
2019-05-05T01:16:16.268Z,96.5
2019-05-05T01:17:16.531Z,96.7
2019-05-05T01:18:16.786Z,96.7
2019-05-05T01:19:17.045Z,96.5
2019-05-05T01:20:16.330Z,96.7
2019-05-05T01:21:16.353Z,96.5
2019-05-05T01:22:16.640Z,96.5
2019-05-05T01:23:16.900Z,96.5
2019-05-05T01:24:17.159Z,96.6
2019-05-05T01:25:16.476Z,96.7
2019-05-05T01:26:16.769Z,96.8
2019-05-05T01:27:17.030Z,97.0
2019-05-05T01:28:16.299Z,97.0
2019-05-05T01:29:16.568Z,97.0
2019-05-05T01:30:16.869Z,96.9
2019-05-05T01:31:16.894Z,97.0
2019-05-05T01:32:17.156Z,97.0
2019-05-05T01:33:16.420Z,97.0
2019-05-05T01:34:16.683Z,97.0
2019-05-05T01:35:16.943Z,97.0
2019-05-05T01:36:17.226Z,96.9
2019-05-05T01:37:16.480Z,96.9
2019-05-05T01:38:16.749Z,96.8
2019-05-05T01:39:17.033Z,96.9
2019-05-05T01:40:16.307Z,96.9
2019-05-05T01:41:16.352Z,97.0
2019-05-05T01:42:16.622Z,97.0
2019-05-05T01:43:16.887Z,97.0
2019-05-05T01:44:17.145Z,97.1
2019-05-05T01:45:16.409Z,97.1
2019-05-05T01:46:16.672Z,97.1
2019-05-05T01:47:16.932Z,97.0
2019-05-05T01:48:17.192Z,96.8
2019-05-05T01:49:16.460Z,96.8
2019-05-05T01:50:21.553Z,96.8
2019-05-05T01:51:16.800Z,96.8
2019-05-05T01:52:17.070Z,97.0
2019-05-05T01:53:16.339Z,97.0
2019-05-05T01:54:16.600Z,97.0
2019-05-05T01:55:16.868Z,97.0
2019-05-05T01:56:17.145Z,97.1
2019-05-05T01:57:16.415Z,97.2
2019-05-05T01:58:16.689Z,97.2
2019-05-05T01:59:16.963Z,97.2
2019-05-05T02:00:17.272Z,97.3
2019-05-05T02:01:16.290Z,97.3
2019-05-05T02:02:16.552Z,97.3
2019-05-05T02:03:16.817Z,97.2
2019-05-05T02:04:17.079Z,97.2
2019-05-05T02:05:16.339Z,97.2
2019-05-05T02:06:16.605Z,97.0
2019-05-05T02:07:16.863Z,97.0
2019-05-05T02:08:17.130Z,97.0
2019-05-05T02:09:16.402Z,97.0
2019-05-05T02:10:16.679Z,97.0
2019-05-05T02:11:16.724Z,97.0
2019-05-05T02:12:16.984Z,97.0
2019-05-05T02:13:17.244Z,97.1
2019-05-05T02:14:16.516Z,97.2
2019-05-05T02:15:16.808Z,97.2
2019-05-05T02:16:17.086Z,97.2
2019-05-05T02:17:16.344Z,97.2
2019-05-05T02:18:16.630Z,97.3
2019-05-05T02:19:16.923Z,97.3
2019-05-05T02:20:31.227Z,97.3
2019-05-05T02:21:16.559Z,97.2
2019-05-05T02:22:16.819Z,97.3
2019-05-05T02:23:17.085Z,97.2
2019-05-05T02:24:16.359Z,97.3
2019-05-05T02:25:16.616Z,97.2
2019-05-05T02:26:16.895Z,97.3
2019-05-05T02:27:19.947Z,97.3
2019-05-05T02:28:17.219Z,97.3
2019-05-05T02:29:16.482Z,97.3
2019-05-05T02:30:16.805Z,97.3
2019-05-05T02:31:16.952Z,97.3
2019-05-05T02:32:17.250Z,97.3
2019-05-05T02:33:16.526Z,97.3
2019-05-05T02:34:16.800Z,97.3
2019-05-05T02:35:17.119Z,97.3
2019-05-05T02:36:16.423Z,97.3
2019-05-05T02:37:16.714Z,97.3
2019-05-05T02:38:16.995Z,97.3
2019-05-05T02:39:16.319Z,97.3
2019-05-05T02:40:16.601Z,97.3
2019-05-05T02:41:16.643Z,97.3
2019-05-05T02:42:16.905Z,97.4
2019-05-05T02:43:17.180Z,97.3
2019-05-05T02:44:16.459Z,97.3
2019-05-05T02:45:16.742Z,97.4
2019-05-05T02:46:17.026Z,97.4
2019-05-05T02:47:16.307Z,97.5
2019-05-05T02:48:16.582Z,97.5
2019-05-05T02:49:16.845Z,97.5
2019-05-05T02:50:17.192Z,97.5
2019-05-05T02:51:17.173Z,97.5
2019-05-05T02:52:16.455Z,97.5
2019-05-05T02:53:16.730Z,97.6
2019-05-05T02:54:16.988Z,97.6
2019-05-05T02:55:17.279Z,97.7
2019-05-05T02:56:16.595Z,97.6
2019-05-05T02:57:16.860Z,97.6
2019-05-05T02:58:17.165Z,97.7
2019-05-05T02:59:16.426Z,97.5
2019-05-05T03:00:16.723Z,97.5
2019-05-05T03:01:16.739Z,97.5
2019-05-05T03:02:17.014Z,97.5
2019-05-05T03:03:16.270Z,97.5
2019-05-05T03:04:16.532Z,97.6
2019-05-05T03:05:16.810Z,97.6
2019-05-05T03:06:17.072Z,97.5
2019-05-05T03:07:16.341Z,97.5
2019-05-05T03:08:16.601Z,97.6
2019-05-05T03:09:16.871Z,97.6
2019-05-05T03:10:17.159Z,97.6
2019-05-05T03:11:17.224Z,97.5
2019-05-05T03:12:16.495Z,97.2
2019-05-05T03:13:16.760Z,97.4
2019-05-05T03:14:17.027Z,97.3
2019-05-05T03:15:16.316Z,97.3
2019-05-05T03:16:16.577Z,97.3
2019-05-05T03:17:16.843Z,97.3
2019-05-05T03:18:17.108Z,97.3
2019-05-05T03:19:16.367Z,97.3
2019-05-05T03:20:16.656Z,97.2
2019-05-05T03:21:16.683Z,97.3
2019-05-05T03:22:16.954Z,97.2
2019-05-05T03:23:17.236Z,97.1
2019-05-05T03:24:16.504Z,97.0
2019-05-05T03:25:16.772Z,97.1
2019-05-05T03:26:17.032Z,97.1
2019-05-05T03:27:16.298Z,97.2
2019-05-05T03:28:16.562Z,97.2
2019-05-05T03:29:16.836Z,97.2
2019-05-05T03:30:17.144Z,97.2
2019-05-05T03:31:17.171Z,97.2
2019-05-05T03:32:16.589Z,97.2
2019-05-05T03:33:16.877Z,97.3
2019-05-05T03:34:17.145Z,97.3
2019-05-05T03:35:16.416Z,97.3
2019-05-05T03:36:16.671Z,97.3
2019-05-05T03:37:16.932Z,97.3
2019-05-05T03:38:17.191Z,97.3
2019-05-05T03:39:16.455Z,97.4
2019-05-05T03:40:16.736Z,97.4
2019-05-05T03:41:16.763Z,97.5
2019-05-05T03:42:17.022Z,97.5
2019-05-05T03:43:16.282Z,97.5
2019-05-05T03:44:16.555Z,97.5
2019-05-05T03:45:16.837Z,97.4
2019-05-05T03:46:17.105Z,97.4
2019-05-05T03:47:16.368Z,97.4
2019-05-05T03:48:16.633Z,97.5
2019-05-05T03:49:16.900Z,97.4
2019-05-05T03:50:17.171Z,97.4
2019-05-05T03:51:21.308Z,97.5
2019-05-05T03:52:16.635Z,97.4
2019-05-05T03:53:16.909Z,97.4
2019-05-05T03:54:17.181Z,97.3
2019-05-05T03:55:16.453Z,97.3
2019-05-05T03:56:16.724Z,97.3
2019-05-05T03:57:16.988Z,97.3
2019-05-05T03:58:16.246Z,97.4
2019-05-05T03:59:16.508Z,97.4
2019-05-05T04:00:16.777Z,97.3
2019-05-05T04:01:16.823Z,97.4
2019-05-05T04:02:17.094Z,97.3
2019-05-05T04:03:16.359Z,97.3
2019-05-05T04:04:16.618Z,97.3
2019-05-05T04:05:16.885Z,97.3
2019-05-05T04:06:17.165Z,97.3
2019-05-05T04:07:16.450Z,97.3
2019-05-05T04:08:16.720Z,97.2
2019-05-05T04:09:16.990Z,97.1
2019-05-05T04:10:16.274Z,97.1
2019-05-05T04:11:16.307Z,97.2
2019-05-05T04:12:16.573Z,97.2
2019-05-05T04:13:16.834Z,97.0
2019-05-05T04:14:18.715Z,96.8
2019-05-05T04:15:17.010Z,96.7
2019-05-05T04:16:16.283Z,96.7
2019-05-05T04:17:16.554Z,96.8
2019-05-05T04:18:16.833Z,96.7
2019-05-05T04:19:17.101Z,96.6
2019-05-05T04:20:16.379Z,96.7
2019-05-05T04:21:33.093Z,96.5
2019-05-05T04:22:17.048Z,96.5
2019-05-05T04:23:16.309Z,96.5
2019-05-05T04:24:16.569Z,96.5
2019-05-05T04:25:16.848Z,96.6
2019-05-05T04:26:17.120Z,96.5
2019-05-05T04:27:16.384Z,96.5
2019-05-05T04:28:16.643Z,96.5
2019-05-05T04:29:16.916Z,96.5
2019-05-05T04:30:17.233Z,96.5
2019-05-05T04:31:17.245Z,96.3
2019-05-05T04:32:16.507Z,96.3
2019-05-05T04:33:16.774Z,96.0
2019-05-05T04:34:17.034Z,96.2
2019-05-05T04:35:16.301Z,96.1
2019-05-05T04:36:16.572Z,96.2
2019-05-05T04:37:16.832Z,96.0
2019-05-05T04:38:17.092Z,95.8
2019-05-05T04:39:16.356Z,95.8
2019-05-05T04:40:16.652Z,95.8
2019-05-05T04:41:16.677Z,96.0
2019-05-05T04:42:16.935Z,96.0
2019-05-05T04:43:17.201Z,96.0
2019-05-05T04:44:18.124Z,96.0
2019-05-05T04:45:16.422Z,96.0
2019-05-05T04:46:16.683Z,95.8
2019-05-05T04:47:16.960Z,95.8
2019-05-05T04:48:17.239Z,95.5
2019-05-05T04:49:16.521Z,95.6
2019-05-05T04:50:18.473Z,95.6
2019-05-05T04:51:16.843Z,95.5
2019-05-05T04:52:17.112Z,95.6
2019-05-05T04:53:16.382Z,95.5
2019-05-05T04:54:16.654Z,95.5
2019-05-05T04:55:16.925Z,95.4
2019-05-05T04:56:17.183Z,95.5
2019-05-05T04:57:16.449Z,95.4
2019-05-05T04:58:16.721Z,95.5
2019-05-05T04:59:16.985Z,95.5
2019-05-05T05:00:17.262Z,95.6
2019-05-05T05:01:16.341Z,95.5
2019-05-05T05:02:16.613Z,95.5
2019-05-05T05:03:16.875Z,95.3
2019-05-05T05:04:17.150Z,95.3
2019-05-05T05:05:16.427Z,95.2
2019-05-05T05:06:16.695Z,95.2
2019-05-05T05:07:16.969Z,95.2
2019-05-05T05:08:17.250Z,95.1
2019-05-05T05:09:16.526Z,95.1
2019-05-05T05:10:16.821Z,95.1
2019-05-05T05:11:16.816Z,95.0
2019-05-05T05:12:17.089Z,95.0
2019-05-05T05:13:16.366Z,94.8
2019-05-05T05:14:16.633Z,94.5
2019-05-05T05:15:16.900Z,94.2
2019-05-05T05:16:17.164Z,94.2
2019-05-05T05:17:19.891Z,94.2
2019-05-05T05:18:17.242Z,94.0
2019-05-05T05:19:16.495Z,93.6
2019-05-05T05:20:16.767Z,93.2
2019-05-05T05:21:16.815Z,93.1
2019-05-05T05:22:17.086Z,93.0
2019-05-05T05:23:16.354Z,93.0
2019-05-05T05:24:16.624Z,92.5
2019-05-05T05:25:16.893Z,92.6
2019-05-05T05:26:17.150Z,92.6
2019-05-05T05:27:16.410Z,92.6
2019-05-05T05:28:16.667Z,92.8
2019-05-05T05:29:16.936Z,93.0
2019-05-05T05:30:17.228Z,93.0
2019-05-05T05:31:16.289Z,93.0
2019-05-05T05:32:16.549Z,92.8
2019-05-05T05:33:16.822Z,92.8
2019-05-05T05:34:17.099Z,92.8
2019-05-05T05:35:16.397Z,92.9
2019-05-05T05:36:16.705Z,92.7
2019-05-05T05:37:16.968Z,92.6
2019-05-05T05:38:17.229Z,92.6
2019-05-05T05:39:16.499Z,92.5
2019-05-05T05:40:16.790Z,92.5
2019-05-05T05:41:16.823Z,92.2
2019-05-05T05:42:17.097Z,92.1
2019-05-05T05:43:16.377Z,92.2
2019-05-05T05:44:16.644Z,91.9
2019-05-05T05:45:16.914Z,91.6
2019-05-05T05:46:17.174Z,91.2
2019-05-05T05:47:16.444Z,90.9
2019-05-05T05:48:16.715Z,90.8
2019-05-05T05:49:16.972Z,90.7
2019-05-05T05:50:17.251Z,90.4
2019-05-05T05:51:19.617Z,89.8
2019-05-05T05:52:19.509Z,89.6
2019-05-05T05:53:16.828Z,89.6
2019-05-05T05:54:17.079Z,89.3
2019-05-05T05:55:16.360Z,89.3
2019-05-05T05:56:16.636Z,89.2
2019-05-05T05:57:16.904Z,88.8
2019-05-05T05:58:17.181Z,88.8
2019-05-05T05:59:16.456Z,88.7
2019-05-05T06:00:16.749Z,88.9
2019-05-05T06:01:16.785Z,89.0
2019-05-05T06:02:17.059Z,88.5
2019-05-05T06:03:16.319Z,88.2
2019-05-05T06:04:16.585Z,88.3
2019-05-05T06:05:16.868Z,88.0
2019-05-05T06:06:17.134Z,87.5
2019-05-05T06:07:16.403Z,87.8
2019-05-05T06:08:16.677Z,88.0
2019-05-05T06:09:16.943Z,87.8
2019-05-05T06:10:27.123Z,87.5
2019-05-05T06:11:16.276Z,87.5
2019-05-05T06:12:16.547Z,87.5
2019-05-05T06:13:16.811Z,87.8
2019-05-05T06:14:17.081Z,88.5
2019-05-05T06:15:16.348Z,88.6
2019-05-05T06:16:16.619Z,88.6
2019-05-05T06:17:16.888Z,88.8
2019-05-05T06:18:17.146Z,88.8
2019-05-05T06:19:16.406Z,88.7
2019-05-05T06:20:16.680Z,88.5
2019-05-05T06:21:16.722Z,87.9
2019-05-05T06:22:31.363Z,88.0
2019-05-05T06:23:16.758Z,88.9
2019-05-05T06:24:17.019Z,88.8
2019-05-05T06:25:16.434Z,88.5
2019-05-05T06:26:16.708Z,89.1
2019-05-05T06:27:16.977Z,88.8
2019-05-05T06:28:17.248Z,88.9
2019-05-05T06:29:16.520Z,89.8
2019-05-05T06:30:16.799Z,89.0
2019-05-05T06:31:16.818Z,89.6
2019-05-05T06:32:17.083Z,88.6
2019-05-05T06:33:16.345Z,88.7
2019-05-05T06:34:16.611Z,89.0
2019-05-05T06:35:16.891Z,88.8
2019-05-05T06:36:17.164Z,88.8
2019-05-05T06:37:16.436Z,88.8
2019-05-05T06:38:16.701Z,89.6
2019-05-05T06:39:16.955Z,89.8
2019-05-05T06:40:17.224Z,89.5
2019-05-05T06:41:16.284Z,88.8
2019-05-05T06:42:16.561Z,89.1
2019-05-05T06:43:16.820Z,88.6
2019-05-05T06:44:17.099Z,88.8
2019-05-05T06:45:16.354Z,88.6
2019-05-05T06:46:16.622Z,88.5
2019-05-05T06:47:16.902Z,88.3
2019-05-05T06:48:17.171Z,87.1
2019-05-05T06:49:16.431Z,86.2
2019-05-05T06:50:16.693Z,86.3
2019-05-05T06:51:16.798Z,86.3
2019-05-05T06:52:17.089Z,86.7
2019-05-05T06:53:16.362Z,86.1
2019-05-05T06:54:16.638Z,85.8
2019-05-05T06:55:16.904Z,85.4
2019-05-05T06:56:17.168Z,85.8
2019-05-05T06:57:16.437Z,85.8
2019-05-05T06:58:16.701Z,85.7
2019-05-05T06:59:16.971Z,84.6
2019-05-05T07:00:17.246Z,84.0
2019-05-05T07:01:16.305Z,84.6
2019-05-05T07:02:16.571Z,84.7
2019-05-05T07:03:16.834Z,83.5
2019-05-05T07:04:17.096Z,85.1
2019-05-05T07:05:16.364Z,85.0
2019-05-05T07:06:16.618Z,85.2
2019-05-05T07:07:16.871Z,84.8
2019-05-05T07:08:17.141Z,84.8
2019-05-05T07:09:16.417Z,84.5
2019-05-05T07:10:16.694Z,85.1
2019-05-05T07:11:16.779Z,84.5
2019-05-05T07:12:17.098Z,84.2
2019-05-05T07:13:16.362Z,84.3
2019-05-05T07:14:16.620Z,84.6
2019-05-05T07:15:16.896Z,85.0
2019-05-05T07:16:17.170Z,85.0
2019-05-05T07:17:16.447Z,85.0
2019-05-05T07:18:16.717Z,84.2
2019-05-05T07:19:16.976Z,84.4
2019-05-05T07:20:17.248Z,84.7
2019-05-05T07:21:16.280Z,84.2
2019-05-05T07:22:17.940Z,84.0
2019-05-05T07:23:17.203Z,84.0
2019-05-05T07:24:16.472Z,85.0
2019-05-05T07:25:16.735Z,83.5
2019-05-05T07:26:16.995Z,82.8
2019-05-05T07:27:16.264Z,83.3
2019-05-05T07:28:16.536Z,82.5
2019-05-05T07:29:18.256Z,82.2
2019-05-05T07:30:16.549Z,81.2
2019-05-05T07:31:16.569Z,80.5
2019-05-05T07:32:16.842Z,81.3
2019-05-05T07:33:17.102Z,81.7
2019-05-05T07:34:16.365Z,81.1
2019-05-05T07:35:16.634Z,80.5
2019-05-05T07:36:16.912Z,80.4
2019-05-05T07:37:17.178Z,81.7
2019-05-05T07:38:16.439Z,81.8
2019-05-05T07:39:16.712Z,82.3
2019-05-05T07:40:17.020Z,81.7
2019-05-05T07:41:17.038Z,81.3
2019-05-05T07:42:16.302Z,81.2
2019-05-05T07:43:16.615Z,81.3
2019-05-05T07:44:29.635Z,81.5
2019-05-05T07:45:25.178Z,81.2
2019-05-05T07:46:16.902Z,80.8
2019-05-05T07:47:17.179Z,80.6
2019-05-05T07:48:16.445Z,80.8
2019-05-05T07:49:16.708Z,80.9
2019-05-05T07:50:32.111Z,81.9
2019-05-05T07:51:16.767Z,80.9
2019-05-05T07:52:17.104Z,80.5
2019-05-05T07:53:18.124Z,80.8
2019-05-05T07:54:16.404Z,80.1
2019-05-05T07:55:16.668Z,79.4
2019-05-05T07:56:16.926Z,78.0
2019-05-05T07:57:17.216Z,77.8
2019-05-05T07:58:16.481Z,77.7
2019-05-05T07:59:16.755Z,78.5
2019-05-05T08:00:17.036Z,79.2
2019-05-05T08:01:17.086Z,79.0
2019-05-05T08:02:16.354Z,80.2
2019-05-05T08:03:16.614Z,80.7
2019-05-05T08:04:16.878Z,80.2
2019-05-05T08:05:17.158Z,81.1
2019-05-05T08:06:16.414Z,80.7
2019-05-05T08:07:16.682Z,80.7
2019-05-05T08:08:16.949Z,80.2
2019-05-05T08:09:17.216Z,79.8
2019-05-05T08:10:16.489Z,79.2
2019-05-05T08:11:16.553Z,79.6
2019-05-05T08:12:16.823Z,79.1
2019-05-05T08:13:17.081Z,79.2
2019-05-05T08:14:16.348Z,78.3
2019-05-05T08:15:16.613Z,79.3
2019-05-05T08:16:16.887Z,79.3
2019-05-05T08:17:17.188Z,80.0
2019-05-05T08:18:16.461Z,78.8
2019-05-05T08:19:16.724Z,79.5
2019-05-05T08:20:23.843Z,78.0
2019-05-05T08:21:17.096Z,78.1
2019-05-05T08:22:16.393Z,77.8
2019-05-05T08:23:31.874Z,78.5
2019-05-05T08:24:16.785Z,78.3
2019-05-05T08:25:17.058Z,77.1
2019-05-05T08:26:16.319Z,77.5
2019-05-05T08:27:16.580Z,75.5
2019-05-05T08:28:16.856Z,76.0
2019-05-05T08:29:17.122Z,75.4
2019-05-05T08:30:16.405Z,75.7
2019-05-05T08:31:16.445Z,75.6
2019-05-05T08:32:16.713Z,76.4
2019-05-05T08:33:16.986Z,76.6
2019-05-05T08:34:17.259Z,75.6
2019-05-05T08:35:16.537Z,76.4
2019-05-05T08:36:16.806Z,74.3
2019-05-05T08:37:17.067Z,73.8
2019-05-05T08:38:16.336Z,73.5
2019-05-05T08:39:16.615Z,73.8
2019-05-05T08:40:16.900Z,74.2
2019-05-05T08:41:16.950Z,74.8
2019-05-05T08:42:17.226Z,74.2
2019-05-05T08:43:16.495Z,74.5
2019-05-05T08:44:18.259Z,75.2
2019-05-05T08:45:16.530Z,72.8
2019-05-05T08:46:16.794Z,73.2
2019-05-05T08:47:17.058Z,73.9
2019-05-05T08:48:16.324Z,72.2
2019-05-05T08:49:16.596Z,72.7
2019-05-05T08:50:16.872Z,72.6
2019-05-05T08:51:16.959Z,74.6
2019-05-05T08:52:17.226Z,72.8
2019-05-05T08:53:16.497Z,71.8
2019-05-05T08:54:16.782Z,73.2
2019-05-05T08:55:17.047Z,71.4
2019-05-05T08:56:16.313Z,70.4
2019-05-05T08:57:16.578Z,72.0
2019-05-05T08:58:16.844Z,72.2
2019-05-05T08:59:17.133Z,72.4
2019-05-05T09:00:16.437Z,72.1
2019-05-05T09:01:16.488Z,70.0
2019-05-05T09:02:16.756Z,70.3
2019-05-05T09:03:17.016Z,71.0
2019-05-05T09:04:16.277Z,70.6
2019-05-05T09:05:16.548Z,69.5
2019-05-05T09:06:16.817Z,70.8
2019-05-05T09:07:17.084Z,71.0
2019-05-05T09:08:16.347Z,70.3
2019-05-05T09:09:16.617Z,71.2
2019-05-05T09:10:16.887Z,72.1
2019-05-05T09:11:16.947Z,71.4
2019-05-05T09:12:17.205Z,71.8
2019-05-05T09:13:16.484Z,70.8
2019-05-05T09:14:16.755Z,71.8
2019-05-05T09:15:17.017Z,72.0
2019-05-05T09:16:16.278Z,71.7
2019-05-05T09:17:16.535Z,71.5
2019-05-05T09:18:16.811Z,71.9
2019-05-05T09:19:17.094Z,71.3
2019-05-05T09:20:16.373Z,71.9
2019-05-05T09:21:16.426Z,71.5
2019-05-05T09:22:16.688Z,72.3
2019-05-05T09:23:16.961Z,70.7
2019-05-05T09:24:17.227Z,70.5
2019-05-05T09:25:16.497Z,71.2
2019-05-05T09:26:16.764Z,71.0
2019-05-05T09:27:17.024Z,70.3
2019-05-05T09:28:16.590Z,69.5
2019-05-05T09:29:16.852Z,68.8
2019-05-05T09:30:17.123Z,67.9
2019-05-05T09:31:17.169Z,69.5
2019-05-05T09:32:16.440Z,68.8
2019-05-05T09:33:18.632Z,69.0
2019-05-05T09:34:16.916Z,69.0
2019-05-05T09:35:17.182Z,70.4
2019-05-05T09:36:16.444Z,69.5
2019-05-05T09:37:16.718Z,70.0
2019-05-05T09:38:16.990Z,69.6
2019-05-05T09:39:16.262Z,67.1
2019-05-05T09:40:16.556Z,66.5
2019-05-05T09:41:16.605Z,64.2
2019-05-05T09:42:16.868Z,64.2
2019-05-05T09:43:17.148Z,63.0
2019-05-05T09:44:16.409Z,62.9
2019-05-05T09:45:16.683Z,63.0
2019-05-05T09:46:16.951Z,62.5
2019-05-05T09:47:17.213Z,65.2
2019-05-05T09:48:16.481Z,64.9
2019-05-05T09:49:16.749Z,61.5
2019-05-05T09:50:17.012Z,63.0
2019-05-05T09:51:17.063Z,63.5
2019-05-05T09:52:16.333Z,63.0
2019-05-05T09:53:16.606Z,62.7
2019-05-05T09:54:17.684Z,59.6
2019-05-05T09:55:16.961Z,58.9
2019-05-05T09:56:17.227Z,58.3
2019-05-05T09:57:16.498Z,61.7
2019-05-05T09:58:16.772Z,61.2
2019-05-05T09:59:17.044Z,64.3
2019-05-05T10:00:16.347Z,60.5
2019-05-05T10:01:16.365Z,59.2
2019-05-05T10:02:16.626Z,58.2
2019-05-05T10:03:16.889Z,59.6
2019-05-05T10:04:17.155Z,59.8
2019-05-05T10:05:16.427Z,62.0
2019-05-05T10:06:16.695Z,62.1
2019-05-05T10:07:16.960Z,58.6
2019-05-05T10:08:17.234Z,59.5
2019-05-05T10:09:16.508Z,59.5
2019-05-05T10:10:16.791Z,60.8
2019-05-05T10:11:16.843Z,62.0
2019-05-05T10:12:17.110Z,60.4
2019-05-05T10:13:16.380Z,60.4
2019-05-05T10:14:16.681Z,61.1
2019-05-05T10:15:16.951Z,61.4
2019-05-05T10:16:17.240Z,60.5
2019-05-05T10:17:16.500Z,59.9
2019-05-05T10:18:16.765Z,61.9
2019-05-05T10:19:17.028Z,62.0
2019-05-05T10:20:16.301Z,59.2
2019-05-05T10:21:18.010Z,57.6
2019-05-05T10:22:16.271Z,56.2
2019-05-05T10:23:16.532Z,58.0
2019-05-05T10:24:30.932Z,57.8
2019-05-05T10:25:16.344Z,59.1
2019-05-05T10:26:16.618Z,59.2
2019-05-05T10:27:16.884Z,60.2
2019-05-05T10:28:17.154Z,60.6
2019-05-05T10:29:16.414Z,59.5
2019-05-05T10:30:16.696Z,60.4
2019-05-05T10:31:16.744Z,59.5
2019-05-05T10:32:17.024Z,60.2
2019-05-05T10:33:16.289Z,60.1
2019-05-05T10:34:16.591Z,59.5
2019-05-05T10:35:16.847Z,59.4
2019-05-05T10:36:17.113Z,61.4
2019-05-05T10:37:16.370Z,60.4
2019-05-05T10:38:16.636Z,59.8
2019-05-05T10:39:16.894Z,58.9
2019-05-05T10:40:17.162Z,58.6
2019-05-05T10:41:17.211Z,58.5
2019-05-05T10:42:16.475Z,58.1
2019-05-05T10:43:16.734Z,58.8
2019-05-05T10:44:17.002Z,58.1
2019-05-05T10:45:16.307Z,57.5
2019-05-05T10:46:16.565Z,58.5
2019-05-05T10:47:16.841Z,58.3
2019-05-05T10:48:17.104Z,59.0
2019-05-05T10:49:16.373Z,57.1
2019-05-05T10:50:16.645Z,57.0
2019-05-05T10:51:16.702Z,56.5
2019-05-05T10:52:16.960Z,55.6
2019-05-05T10:53:17.231Z,55.9
2019-05-05T10:54:16.505Z,56.5
2019-05-05T10:55:16.792Z,57.6
2019-05-05T10:56:17.057Z,57.1
2019-05-05T10:57:18.623Z,57.5
2019-05-05T10:58:16.968Z,57.4
2019-05-05T10:59:17.250Z,56.7
2019-05-05T11:00:16.563Z,56.8
2019-05-05T11:01:16.590Z,58.6
2019-05-05T11:02:16.868Z,55.5
2019-05-05T11:03:17.134Z,56.7
2019-05-05T11:04:16.404Z,55.8
2019-05-05T11:05:16.698Z,56.1
2019-05-05T11:06:16.956Z,57.0
2019-05-05T11:07:17.207Z,56.8
2019-05-05T11:08:16.471Z,57.0
2019-05-05T11:09:16.727Z,58.0
2019-05-05T11:10:17.028Z,59.2
2019-05-05T11:11:17.051Z,59.7
2019-05-05T11:12:16.322Z,59.7
2019-05-05T11:13:16.581Z,60.4
2019-05-05T11:14:16.840Z,60.8
2019-05-05T11:15:17.092Z,61.7
2019-05-05T11:16:16.353Z,62.4
2019-05-05T11:17:16.618Z,60.0
2019-05-05T11:18:16.894Z,59.9
2019-05-05T11:19:17.168Z,60.5
2019-05-05T11:20:16.442Z,61.7
2019-05-05T11:21:16.495Z,59.6
2019-05-05T11:22:16.766Z,59.9
2019-05-05T11:23:17.036Z,60.9
2019-05-05T11:24:16.322Z,60.9
2019-05-05T11:25:16.630Z,61.4
2019-05-05T11:26:17.074Z,60.5
2019-05-05T11:27:16.341Z,60.8
2019-05-05T11:28:16.643Z,61.1
2019-05-05T11:29:16.923Z,61.5
2019-05-05T11:30:17.212Z,60.4
2019-05-05T11:31:16.301Z,60.0
2019-05-05T11:32:16.560Z,59.4
2019-05-05T11:33:16.829Z,59.4
2019-05-05T11:34:17.085Z,59.5
2019-05-05T11:35:16.384Z,59.3
2019-05-05T11:36:16.649Z,59.5
2019-05-05T11:37:16.904Z,59.3
2019-05-05T11:38:17.171Z,60.6
2019-05-05T11:39:16.430Z,60.0
2019-05-05T11:40:16.980Z,59.5
2019-05-05T11:41:16.765Z,59.8
2019-05-05T11:42:17.029Z,58.7
2019-05-05T11:43:16.306Z,60.2
2019-05-05T11:44:16.574Z,59.5
2019-05-05T11:45:16.851Z,57.8
2019-05-05T11:46:17.122Z,58.9
2019-05-05T11:47:16.419Z,59.2
2019-05-05T11:48:16.686Z,59.7
2019-05-05T11:49:16.953Z,58.6
2019-05-05T11:50:17.222Z,59.8
2019-05-05T11:51:16.281Z,59.9
2019-05-05T11:52:16.562Z,60.2
2019-05-05T11:53:16.844Z,61.0
2019-05-05T11:54:17.119Z,61.4
2019-05-05T11:55:16.392Z,61.4
2019-05-05T11:56:16.663Z,61.1
2019-05-05T11:57:16.925Z,60.7
2019-05-05T11:58:17.212Z,61.8
2019-05-05T11:59:16.520Z,62.0
2019-05-05T12:00:16.837Z,62.8
2019-05-05T12:01:16.879Z,62.0
2019-05-05T12:02:17.155Z,61.7
2019-05-05T12:03:16.419Z,61.9
2019-05-05T12:04:16.669Z,63.3
2019-05-05T12:05:16.956Z,61.8
2019-05-05T12:06:17.223Z,62.8
2019-05-05T12:07:16.524Z,63.9
2019-05-05T12:08:16.785Z,63.0
2019-05-05T12:09:17.116Z,63.4
2019-05-05T12:10:16.394Z,63.4
2019-05-05T12:11:16.434Z,64.3
2019-05-05T12:12:16.710Z,63.0
2019-05-05T12:13:16.986Z,63.5
2019-05-05T12:14:17.275Z,62.4
2019-05-05T12:15:16.552Z,62.7
2019-05-05T12:16:16.812Z,62.2
2019-05-05T12:17:17.084Z,62.9
2019-05-05T12:18:16.352Z,62.7
2019-05-05T12:19:16.618Z,63.5
2019-05-05T12:20:16.900Z,61.8
2019-05-05T12:21:16.990Z,61.5
2019-05-05T12:22:16.262Z,61.6
2019-05-05T12:23:16.530Z,61.1
2019-05-05T12:24:16.799Z,61.5
2019-05-05T12:25:28.498Z,61.7
2019-05-05T12:26:16.960Z,61.5
2019-05-05T12:27:17.234Z,61.0
2019-05-05T12:28:16.501Z,60.2
2019-05-05T12:29:16.771Z,59.6
2019-05-05T12:30:17.052Z,61.2
2019-05-05T12:31:17.104Z,60.8
2019-05-05T12:32:16.378Z,60.9
2019-05-05T12:33:16.652Z,59.5
2019-05-05T12:34:16.927Z,60.1
2019-05-05T12:35:17.185Z,60.0
2019-05-05T12:36:16.465Z,61.4
2019-05-05T12:37:16.742Z,59.0
2019-05-05T12:38:17.009Z,59.3
2019-05-05T12:39:16.278Z,60.1
2019-05-05T12:40:16.556Z,59.5
2019-05-05T12:41:16.619Z,60.2
2019-05-05T12:42:16.888Z,58.5
2019-05-05T12:43:17.156Z,58.8
2019-05-05T12:44:16.425Z,59.3
2019-05-05T12:45:16.688Z,60.5
2019-05-05T12:46:16.963Z,60.6
2019-05-05T12:47:17.220Z,61.2
2019-05-05T12:48:16.499Z,60.7
2019-05-05T12:49:16.761Z,60.0
2019-05-05T12:50:17.037Z,60.1
2019-05-05T12:51:17.088Z,60.4
2019-05-05T12:52:16.355Z,59.9
2019-05-05T12:53:16.620Z,60.2
2019-05-05T12:54:16.887Z,60.9
2019-05-05T12:55:17.149Z,61.2
2019-05-05T12:56:16.410Z,62.0
2019-05-05T12:57:16.683Z,61.2
2019-05-05T12:58:16.981Z,60.8
2019-05-05T12:59:17.277Z,61.8
2019-05-05T13:00:16.571Z,61.6
2019-05-05T13:01:16.571Z,62.5
2019-05-05T13:02:16.836Z,61.4
2019-05-05T13:03:17.119Z,62.8
2019-05-05T13:04:16.388Z,62.9
2019-05-05T13:05:16.648Z,63.3
2019-05-05T13:06:16.906Z,64.7
2019-05-05T13:07:17.168Z,65.1
2019-05-05T13:08:16.437Z,65.7
2019-05-05T13:09:16.701Z,66.0
2019-05-05T13:10:17.006Z,65.0
2019-05-05T13:11:17.026Z,64.7
2019-05-05T13:12:16.293Z,65.2
2019-05-05T13:13:16.556Z,65.0
2019-05-05T13:14:16.816Z,63.1
2019-05-05T13:15:17.074Z,64.0
2019-05-05T13:16:16.360Z,64.7
2019-05-05T13:17:16.630Z,65.8
2019-05-05T13:18:16.885Z,65.9